KBRL/BRL METAR and TAF weather

Enter ICAO airport designator
Station Type Date Time Source
KBRL METAR 2019/08/22 02:53 UTC NOAA

KBRL 220253Z AUTO 33003KT 10SM OVC110 23/21 A3000 RMK AO2 SLP155 60000 T02280206 51006


Station Type Date Time Source
KBRL Decoded METAR 2019/08/22 02:53 UTC NOAA

Station name not available
Aug 21, 2019 - 10:53 PM EDT / 2019.08.22 0253 UTC
Wind: from the NNW (330 degrees) at 3 MPH (3 KT):0
Visibility: 10 mile(s):0
Sky conditions: overcast
Temperature: 73.0 F (22.8 C)
Dew Point: 69.1 F (20.6 C)
Relative Humidity: 87%
Pressure (altimeter): 30 in. Hg (1015 hPa)
Pressure tendency: 0.02 inches (0.6 hPa) higher than three hours ago
ob: KBRL 220253Z AUTO 33003KT 10SM OVC110 23/21 A3000 RMK AO2 SLP155 60000 T02280206 51006
cycle: 3

Station Type Date Time Source
KBRL TAF 2019/08/21 18:22 UTC NOAA

TAF KBRL 211720Z 2118/2218 28007KT P6SM SCT025 BKN050
TEMPO 2118/2120 6SM -RA BR
FM220000 35005KT P6SM BKN050

Example: see airport list